Time;durP1;ratioP1;P1;durP2;ratioP2;P2;SDS_P1;SDS_P2;PMS_P1;PMS_P2;Temp;Humidity;BMP_temperature;BMP_pressure;BME280_temperature;BME280_humidity;BME280_pressure;Samples;Min_cycle;Max_cycle;Signal;HPM_P1;HPM_P2
2021/10/12 00:01:41;;;;;;;18.63;3.30;;;12.10;99.90;;;;;;5065546;28;20450;-82
2021/10/12 00:04:08;;;;;;;19.07;4.13;;;12.00;99.90;;;;;;5071650;28;20464;-82
2021/10/12 00:06:35;;;;;;;20.07;4.17;;;12.00;99.90;;;;;;5071053;28;20494;-82
2021/10/12 00:09:03;;;;;;;20.57;4.60;;;12.00;99.90;;;;;;5080018;28;20450;-82
2021/10/12 00:11:30;;;;;;;17.20;4.13;;;12.00;99.90;;;;;;5080805;28;20448;-82
2021/10/12 00:13:58;;;;;;;28.90;5.70;;;12.00;99.90;;;;;;5081103;28;20550;-82
2021/10/12 00:16:25;;;;;;;18.47;4.10;;;12.00;99.90;;;;;;5081272;28;20448;-82
2021/10/12 00:18:52;;;;;;;18.43;4.73;;;12.00;99.90;;;;;;5087202;28;20514;-81
2021/10/12 00:21:19;;;;;;;22.63;5.30;;;12.00;99.90;;;;;;5089204;28;20439;-82
2021/10/12 00:23:46;;;;;;;22.53;5.60;;;12.00;99.90;;;;;;5078765;28;21001;-82
2021/10/12 00:26:12;;;;;;;22.50;6.63;;;12.10;99.90;;;;;;5079605;28;20491;-81
2021/10/12 00:28:39;;;;;;;21.87;5.30;;;12.00;99.90;;;;;;5079593;28;20534;-82
2021/10/12 00:31:08;;;;;;;20.47;4.70;;;12.00;99.90;;;;;;5080421;28;20472;-82
2021/10/12 00:33:34;;;;;;;22.53;6.53;;;12.00;99.90;;;;;;5079501;28;20483;-82
2021/10/12 00:36:01;;;;;;;21.70;6.50;;;12.00;99.90;;;;;;5079657;28;20447;-82
2021/10/12 00:38:28;;;;;;;23.33;5.90;;;12.00;99.90;;;;;;5079184;28;20455;-82
2021/10/12 00:40:55;;;;;;;21.30;6.43;;;12.00;99.90;;;;;;5080861;28;21202;-82
2021/10/12 00:43:25;;;;;;;20.50;6.03;;;12.00;99.90;;;;;;5079593;28;20505;-82
2021/10/12 00:45:53;;;;;;;27.67;8.07;;;12.00;99.90;;;;;;5079489;28;20497;-82
2021/10/12 00:48:22;;;;;;;25.60;8.40;;;12.00;99.90;;;;;;5079778;28;20452;-82
2021/10/12 00:50:49;;;;;;;29.77;8.47;;;11.90;99.90;;;;;;5079411;28;20457;-82
2021/10/12 00:53:16;;;;;;;28.33;7.73;;;11.90;99.90;;;;;;5078967;28;20475;-82
2021/10/12 00:55:43;;;;;;;28.03;8.37;;;11.80;99.90;;;;;;5078747;28;20457;-81
2021/10/12 00:58:11;;;;;;;24.03;6.87;;;11.80;99.90;;;;;;5078553;28;20986;-82
2021/10/12 01:00:39;;;;;;;23.53;7.03;;;11.80;99.90;;;;;;5078985;28;20465;-82
2021/10/12 01:03:06;;;;;;;26.33;7.73;;;11.90;99.90;;;;;;5078454;28;20478;-82
2021/10/12 01:05:35;;;;;;;22.97;6.60;;;11.90;99.90;;;;;;5080059;28;20453;-82
2021/10/12 01:08:02;;;;;;;24.33;6.40;;;11.80;99.90;;;;;;5078662;28;20489;-82
2021/10/12 01:10:29;;;;;;;21.77;6.73;;;11.80;99.90;;;;;;5079394;28;20839;-83
2021/10/12 01:12:57;;;;;;;21.67;7.03;;;11.80;99.90;;;;;;5078437;28;20473;-83
2021/10/12 01:15:24;;;;;;;20.33;5.70;;;11.90;99.90;;;;;;5078855;28;20454;-83
2021/10/12 01:17:51;;;;;;;20.73;6.03;;;11.90;99.90;;;;;;5077789;28;20455;-83
2021/10/12 01:20:18;;;;;;;21.50;6.17;;;11.90;99.90;;;;;;5077290;28;20451;-82
2021/10/12 01:22:47;;;;;;;24.07;6.07;;;11.90;99.90;;;;;;5076998;28;20466;-83
2021/10/12 01:25:15;;;;;;;20.53;6.40;;;11.90;99.90;;;;;;5077291;28;20909;-82
2021/10/12 01:27:43;;;;;;;22.00;6.20;;;11.80;99.90;;;;;;5076534;28;20489;-82
2021/10/12 01:30:11;;;;;;;23.90;6.60;;;11.80;99.90;;;;;;5076715;28;20450;-82
2021/10/12 01:32:39;;;;;;;24.47;6.53;;;11.80;99.90;;;;;;5076578;28;20487;-82
2021/10/12 01:35:07;;;;;;;19.23;5.70;;;11.80;99.90;;;;;;5076933;28;20459;-82
2021/10/12 01:37:34;;;;;;;22.57;7.33;;;11.80;99.90;;;;;;5076647;28;20458;-82
2021/10/12 01:40:02;;;;;;;23.50;6.73;;;11.70;99.90;;;;;;5076708;28;20973;-82
2021/10/12 01:42:29;;;;;;;18.80;5.20;;;11.70;99.90;;;;;;5076324;28;21018;-82
2021/10/12 01:44:56;;;;;;;21.27;6.40;;;11.80;99.90;;;;;;5076359;28;20969;-82
2021/10/12 01:47:23;;;;;;;19.30;6.00;;;11.80;99.90;;;;;;5076455;28;20482;-82
2021/10/12 01:49:49;;;;;;;21.40;6.63;;;11.80;99.90;;;;;;5075892;28;20455;-82
2021/10/12 01:52:16;;;;;;;24.00;7.20;;;11.80;99.90;;;;;;5077052;28;20484;-82
2021/10/12 01:54:43;;;;;;;20.40;8.00;;;11.70;99.90;;;;;;5076467;28;20440;-83
2021/10/12 01:57:11;;;;;;;20.40;7.33;;;11.70;99.90;;;;;;5077272;28;20964;-83
2021/10/12 01:59:38;;;;;;;21.33;7.40;;;11.80;99.90;;;;;;5077232;28;20452;-83
2021/10/12 02:02:05;;;;;;;21.23;6.70;;;11.70;99.90;;;;;;5077243;28;20471;-83
2021/10/12 02:04:33;;;;;;;22.10;6.80;;;11.70;99.90;;;;;;5077423;28;20840;-83
2021/10/12 02:07:00;;;;;;;21.50;8.03;;;11.70;99.90;;;;;;5076496;28;21039;-83
2021/10/12 02:09:27;;;;;;;22.43;9.10;;;11.80;99.90;;;;;;5077133;28;20948;-83
2021/10/12 02:11:54;;;;;;;17.80;6.23;;;11.70;99.90;;;;;;5076416;28;20450;-82
2021/10/12 02:14:23;;;;;;;29.23;7.73;;;11.70;99.90;;;;;;5076863;28;20457;-83
2021/10/12 02:16:49;;;;;;;30.50;9.47;;;11.70;99.90;;;;;;5076867;28;20453;-83
2021/10/12 02:19:16;;;;;;;22.73;8.13;;;11.70;99.90;;;;;;5086884;28;20458;-81
2021/10/12 02:21:43;;;;;;;23.77;9.60;;;11.70;99.90;;;;;;5082826;28;20458;-82
2021/10/12 02:24:10;;;;;;;21.57;8.57;;;11.60;99.90;;;;;;5075690;28;20525;-82
2021/10/12 02:26:37;;;;;;;20.10;7.60;;;11.70;99.90;;;;;;5075663;28;20483;-82
2021/10/12 02:29:04;;;;;;;22.50;8.20;;;11.60;99.90;;;;;;5076232;28;20454;-83
2021/10/12 02:31:32;;;;;;;22.97;7.60;;;11.70;99.90;;;;;;5076104;28;20461;-82
2021/10/12 02:33:59;;;;;;;25.90;9.80;;;11.70;99.90;;;;;;5076587;28;20482;-83
2021/10/12 02:36:25;;;;;;;20.37;8.53;;;11.70;99.90;;;;;;5076237;28;20454;-82
2021/10/12 02:38:52;;;;;;;22.30;8.73;;;11.70;99.90;;;;;;5076959;28;20453;-83
2021/10/12 02:41:19;;;;;;;25.20;8.37;;;11.70;99.90;;;;;;5076781;28;20454;-83
2021/10/12 02:43:46;;;;;;;22.57;8.80;;;11.60;99.90;;;;;;5076932;28;20470;-83
2021/10/12 02:46:13;;;;;;;21.13;8.60;;;11.70;99.90;;;;;;5076676;28;20572;-83
2021/10/12 02:48:41;;;;;;;23.37;7.13;;;11.60;99.90;;;;;;5076665;28;20451;-83
2021/10/12 02:51:08;;;;;;;21.80;8.83;;;11.60;99.90;;;;;;5077222;28;20534;-83
2021/10/12 02:53:35;;;;;;;20.93;8.00;;;11.60;99.90;;;;;;5076989;28;20474;-82
2021/10/12 02:56:02;;;;;;;24.93;9.60;;;11.70;99.90;;;;;;5075860;28;20452;-83
2021/10/12 02:58:29;;;;;;;20.97;7.80;;;11.60;99.90;;;;;;5075874;28;20456;-82
2021/10/12 03:00:55;;;;;;;20.93;8.60;;;11.60;99.90;;;;;;5075826;28;20543;-83
2021/10/12 03:03:22;;;;;;;27.43;10.03;;;11.60;99.90;;;;;;5077097;28;20497;-83
2021/10/12 03:05:50;;;;;;;31.23;11.37;;;11.60;99.90;;;;;;5076493;28;20545;-83
2021/10/12 03:08:17;;;;;;;23.30;8.73;;;11.50;99.90;;;;;;5076331;28;20488;-82
2021/10/12 03:10:44;;;;;;;23.70;8.57;;;11.40;99.90;;;;;;5076322;28;20451;-83
2021/10/12 03:13:11;;;;;;;24.37;9.30;;;11.50;99.90;;;;;;5076714;28;20478;-82
2021/10/12 03:15:38;;;;;;;25.63;10.13;;;11.40;99.90;;;;;;5076201;28;20454;-83
2021/10/12 03:18:04;;;;;;;28.03;7.90;;;11.50;99.90;;;;;;5072424;28;20452;-83
2021/10/12 03:20:31;;;;;;;23.77;8.80;;;11.50;99.90;;;;;;5066550;28;20456;-83
2021/10/12 03:22:59;;;;;;;20.30;7.83;;;11.50;99.90;;;;;;5067828;28;20470;-82
2021/10/12 03:25:26;;;;;;;20.70;7.80;;;11.50;99.90;;;;;;5068085;28;20458;-83
2021/10/12 03:27:53;;;;;;;25.00;9.20;;;11.50;99.90;;;;;;5076214;28;20482;-83
2021/10/12 03:30:20;;;;;;;22.83;7.70;;;11.50;99.90;;;;;;5070728;28;20463;-83
2021/10/12 03:32:47;;;;;;;20.20;7.30;;;11.50;99.90;;;;;;5074843;28;20483;-83
2021/10/12 03:35:15;;;;;;;26.47;8.60;;;11.40;99.90;;;;;;5077823;28;20459;-83
2021/10/12 03:37:42;;;;;;;25.33;10.13;;;11.40;99.90;;;;;;5077271;28;20482;-83
2021/10/12 03:40:12;;;;;;;23.87;9.00;;;11.40;99.90;;;;;;5077988;28;20457;-83
2021/10/12 03:42:38;;;;;;;25.23;9.70;;;11.40;99.90;;;;;;5078035;28;20474;-83
2021/10/12 03:45:06;;;;;;;27.03;9.20;;;11.40;99.90;;;;;;5078785;28;20525;-83
2021/10/12 03:47:33;;;;;;;25.17;9.23;;;11.40;99.90;;;;;;5078233;28;20703;-83
2021/10/12 03:50:00;;;;;;;24.77;8.47;;;11.40;99.90;;;;;;5078278;28;20451;-83
2021/10/12 03:52:27;;;;;;;28.77;10.83;;;11.40;99.90;;;;;;5078382;28;20466;-83
2021/10/12 03:54:53;;;;;;;29.20;11.93;;;11.40;99.90;;;;;;5079028;28;20458;-83
2021/10/12 03:57:21;;;;;;;28.83;11.83;;;11.40;99.90;;;;;;5078240;28;20447;-83
2021/10/12 03:59:48;;;;;;;32.90;14.00;;;11.50;99.90;;;;;;5077500;28;20459;-83
2021/10/12 04:02:15;;;;;;;34.17;15.03;;;11.50;99.90;;;;;;5077036;28;20557;-83
2021/10/12 04:04:42;;;;;;;32.93;14.20;;;11.50;99.90;;;;;;5077006;28;20449;-83
2021/10/12 04:07:09;;;;;;;35.30;12.93;;;11.50;99.90;;;;;;5077707;28;20486;-83
2021/10/12 04:09:36;;;;;;;28.80;13.50;;;11.50;99.90;;;;;;5078721;28;21038;-83
2021/10/12 04:12:02;;;;;;;35.10;14.33;;;11.50;99.90;;;;;;5079313;28;20484;-83
2021/10/12 04:14:31;;;;;;;31.93;12.80;;;11.40;99.90;;;;;;5083302;28;20812;-83
2021/10/12 04:16:57;;;;;;;30.50;13.20;;;11.50;99.90;;;;;;5084465;28;20439;-82
2021/10/12 04:19:24;;;;;;;29.70;14.30;;;11.40;99.90;;;;;;5095648;28;20487;-83
2021/10/12 04:21:51;;;;;;;29.87;12.40;;;11.50;99.90;;;;;;5081909;28;20463;-83
2021/10/12 04:24:18;;;;;;;31.37;12.87;;;11.50;99.90;;;;;;5081441;28;20448;-83
2021/10/12 04:26:44;;;;;;;28.73;11.83;;;11.50;99.90;;;;;;5080470;28;20484;-83
2021/10/12 04:29:11;;;;;;;40.63;18.63;;;11.50;99.90;;;;;;5080781;28;20464;-83
2021/10/12 04:31:39;;;;;;;38.07;17.00;;;11.50;99.90;;;;;;5079815;28;20462;-82
2021/10/12 04:34:06;;;;;;;32.93;13.23;;;11.50;99.90;;;;;;5073160;28;20997;-82
2021/10/12 04:36:33;;;;;;;33.87;12.17;;;11.40;99.90;;;;;;5067413;28;20460;-83
2021/10/12 04:39:00;;;;;;;27.07;12.00;;;11.40;99.90;;;;;;5068308;28;20512;-83
2021/10/12 04:41:26;;;;;;;27.83;10.53;;;11.40;99.90;;;;;;5068319;28;20452;-81
2021/10/12 04:43:53;;;;;;;25.43;9.90;;;11.40;99.90;;;;;;5070383;28;20477;-82
2021/10/12 04:46:20;;;;;;;25.37;9.87;;;11.40;99.90;;;;;;5078229;28;20454;-81
2021/10/12 04:48:48;;;;;;;26.50;8.97;;;11.40;99.90;;;;;;5069940;28;20490;-82
2021/10/12 04:51:15;;;;;;;28.13;9.27;;;11.40;99.90;;;;;;5071755;28;20454;-81
2021/10/12 04:53:42;;;;;;;25.23;9.30;;;11.40;99.90;;;;;;5079578;28;20475;-82
2021/10/12 04:56:09;;;;;;;27.70;8.10;;;11.40;99.90;;;;;;5079035;28;20457;-82
2021/10/12 04:58:35;;;;;;;23.57;8.77;;;11.40;99.90;;;;;;5079353;28;20446;-81
2021/10/12 05:01:02;;;;;;;26.47;10.20;;;11.40;99.90;;;;;;5079243;28;20520;-82
2021/10/12 05:03:29;;;;;;;24.93;9.97;;;11.40;99.90;;;;;;5079424;28;20482;-82
2021/10/12 05:05:57;;;;;;;26.43;10.67;;;11.40;99.90;;;;;;5079568;28;20838;-82
2021/10/12 05:08:24;;;;;;;30.87;12.13;;;11.40;99.90;;;;;;5079706;28;20486;-82
2021/10/12 05:10:51;;;;;;;26.93;12.83;;;11.40;99.90;;;;;;5079227;28;20461;-81
2021/10/12 05:13:18;;;;;;;31.50;13.40;;;11.40;99.90;;;;;;5068462;28;20468;-81
2021/10/12 05:15:48;;;;;;;28.33;12.40;;;11.40;99.90;;;;;;5077737;28;20924;-82
2021/10/12 05:18:19;;;;;;;31.33;12.87;;;11.40;99.90;;;;;;5075862;28;20443;-82
2021/10/12 05:20:47;;;;;;;32.17;13.70;;;11.40;99.90;;;;;;5074946;28;20458;-82
2021/10/12 05:23:16;;;;;;;29.37;13.20;;;11.40;99.90;;;;;;5073260;28;20459;-82
2021/10/12 05:25:46;;;;;;;32.73;13.53;;;11.40;99.90;;;;;;5078830;28;20456;-82
2021/10/12 05:28:13;;;;;;;36.93;15.83;;;11.40;99.90;;;;;;5079132;28;20845;-82
2021/10/12 05:30:40;;;;;;;33.00;14.70;;;11.40;99.90;;;;;;5082827;28;20461;-83
2021/10/12 05:33:08;;;;;;;31.90;14.73;;;11.40;99.90;;;;;;5079727;28;20487;-82
2021/10/12 05:35:35;;;;;;;33.33;16.00;;;11.40;99.90;;;;;;5081908;28;20519;-83
2021/10/12 05:38:02;;;;;;;34.97;15.53;;;11.40;99.90;;;;;;5085139;28;20458;-82
2021/10/12 05:40:31;;;;;;;36.60;14.27;;;11.40;99.90;;;;;;5086647;28;20476;-82
2021/10/12 05:43:00;;;;;;;32.57;16.83;;;11.40;99.90;;;;;;5089443;28;20486;-82
2021/10/12 05:45:29;;;;;;;34.00;15.87;;;11.40;99.90;;;;;;5088063;28;20515;-81
2021/10/12 05:48:00;;;;;;;32.10;15.33;;;11.40;99.90;;;;;;5088149;28;20479;-82
2021/10/12 05:50:27;;;;;;;33.17;14.90;;;11.40;99.90;;;;;;5087587;28;20430;-80
2021/10/12 05:53:01;;;;;;;29.90;14.13;;;11.30;99.90;;;;;;5085825;28;20477;-81
2021/10/12 05:55:35;;;;;;;28.97;14.27;;;11.40;99.90;;;;;;5087194;28;20450;-84
2021/10/12 05:58:11;;;;;;;31.83;12.83;;;11.40;99.90;;;;;;5087759;28;21050;-84
2021/10/12 06:00:38;;;;;;;29.00;13.30;;;11.50;99.90;;;;;;5066812;28;20449;-84
2021/10/12 06:03:05;;;;;;;30.13;13.20;;;11.40;99.90;;;;;;5079485;28;20992;-84
2021/10/12 06:05:32;;;;;;;33.03;15.50;;;11.50;99.90;;;;;;5078964;28;20817;-84
2021/10/12 06:07:58;;;;;;;30.13;13.57;;;11.50;99.90;;;;;;5080310;28;20487;-84
2021/10/12 06:10:25;;;;;;;30.23;13.80;;;11.40;99.90;;;;;;5080330;28;20459;-83
2021/10/12 06:12:53;;;;;;;32.47;14.80;;;11.50;99.90;;;;;;5084843;28;20465;-83
2021/10/12 06:15:20;;;;;;;30.50;14.50;;;11.50;99.90;;;;;;5079572;28;20454;-84
2021/10/12 06:17:47;;;;;;;30.33;12.50;;;11.40;99.90;;;;;;5069796;28;20458;-84
2021/10/12 06:20:14;;;;;;;30.40;14.80;;;11.50;99.90;;;;;;5071568;28;20446;-83
2021/10/12 06:22:41;;;;;;;30.03;12.87;;;11.40;99.90;;;;;;5077628;28;20478;-83
2021/10/12 06:25:08;;;;;;;29.03;11.83;;;11.40;99.90;;;;;;5078481;28;20456;-84
2021/10/12 06:27:35;;;;;;;30.10;11.90;;;11.50;99.90;;;;;;5078084;28;20489;-84
2021/10/12 06:30:04;;;;;;;27.57;11.50;;;11.40;99.90;;;;;;5078847;28;20451;-84
2021/10/12 06:32:31;;;;;;;29.37;10.27;;;11.40;99.90;;;;;;5077960;28;21055;-84
2021/10/12 06:34:57;;;;;;;28.43;10.63;;;11.40;99.90;;;;;;5079720;28;20455;-84
2021/10/12 06:37:24;;;;;;;26.83;9.67;;;11.50;99.90;;;;;;5079288;28;20448;-84
2021/10/12 06:39:51;;;;;;;26.40;10.80;;;11.50;99.90;;;;;;5078278;28;20462;-84
2021/10/12 06:42:18;;;;;;;25.20;10.10;;;11.50;99.90;;;;;;5078036;28;20559;-84
2021/10/12 06:44:45;;;;;;;22.57;9.03;;;11.50;99.90;;;;;;5077915;28;20527;-84
2021/10/12 06:47:13;;;;;;;23.93;8.80;;;11.50;99.90;;;;;;5077961;28;20483;-84
2021/10/12 06:49:40;;;;;;;25.43;9.50;;;11.50;99.90;;;;;;5078693;28;20456;-84
2021/10/12 06:52:07;;;;;;;22.30;8.40;;;11.60;99.90;;;;;;5075008;28;20468;-84
2021/10/12 06:54:34;;;;;;;24.70;9.27;;;11.60;99.90;;;;;;5069540;28;20462;-84
2021/10/12 06:57:02;;;;;;;23.63;9.17;;;11.60;99.90;;;;;;5063385;28;20507;-84
2021/10/12 06:59:29;;;;;;;20.67;7.50;;;11.50;99.90;;;;;;5064672;28;20460;-84
2021/10/12 07:01:56;;;;;;;26.13;7.40;;;11.50;99.90;;;;;;5067581;28;20464;-84
2021/10/12 07:04:24;;;;;;;30.03;8.77;;;11.50;99.90;;;;;;5069065;28;20463;-84
2021/10/12 07:06:51;;;;;;;23.80;8.67;;;11.50;99.90;;;;;;5072187;28;20451;-84
2021/10/12 07:09:18;;;;;;;23.43;7.00;;;11.50;99.90;;;;;;5077737;28;20483;-82
2021/10/12 07:11:46;;;;;;;25.27;8.40;;;11.60;99.90;;;;;;5076670;28;20513;-82
2021/10/12 07:14:13;;;;;;;24.47;8.47;;;11.60;99.90;;;;;;5076160;28;20455;-82
2021/10/12 07:16:40;;;;;;;19.93;6.27;;;11.60;99.90;;;;;;5059842;28;20449;-82
2021/10/12 07:19:07;;;;;;;20.23;6.30;;;11.70;99.90;;;;;;5055474;28;20447;-81
2021/10/12 07:21:35;;;;;;;23.50;6.30;;;11.70;99.90;;;;;;5055486;28;20948;-82
2021/10/12 07:24:02;;;;;;;21.10;6.53;;;11.70;99.90;;;;;;5056453;28;20470;-81
2021/10/12 07:26:30;;;;;;;22.83;6.20;;;11.70;99.90;;;;;;5056298;28;20462;-82
2021/10/12 07:28:58;;;;;;;23.87;6.03;;;11.70;99.90;;;;;;5071611;28;20494;-81
2021/10/12 07:31:25;;;;;;;20.80;7.17;;;11.70;99.90;;;;;;5053388;28;20575;-82
2021/10/12 07:33:52;;;;;;;28.97;8.80;;;11.70;99.90;;;;;;5065730;28;20497;-83
2021/10/12 07:36:19;;;;;;;21.27;7.00;;;11.70;99.90;;;;;;5076061;28;21015;-83
2021/10/12 07:38:48;;;;;;;21.83;6.90;;;11.80;99.90;;;;;;5069366;28;20439;-82
2021/10/12 07:41:15;;;;;;;24.40;8.47;;;11.80;99.90;;;;;;5080584;28;21022;-82
2021/10/12 07:43:42;;;;;;;23.20;7.60;;;11.70;99.90;;;;;;5062604;28;20558;-84
2021/10/12 07:46:10;;;;;;;25.27;7.10;;;11.70;99.90;;;;;;5062465;28;20495;-82
2021/10/12 07:48:36;;;;;;;23.70;8.90;;;11.70;99.90;;;;;;5053234;28;20498;-83
2021/10/12 07:51:03;;;;;;;25.20;7.27;;;11.70;99.90;;;;;;5068900;28;20835;-82
2021/10/12 07:53:33;;;;;;;25.27;9.93;;;11.80;99.90;;;;;;5070036;28;21200;-82
2021/10/12 07:56:04;;;;;;;24.87;8.57;;;11.70;99.90;;;;;;5077234;28;20539;-83
2021/10/12 07:58:31;;;;;;;23.30;9.53;;;11.70;99.90;;;;;;5079378;28;20470;-82
2021/10/12 08:00:58;;;;;;;22.83;9.20;;;11.80;99.90;;;;;;5081510;28;20460;-82
2021/10/12 08:03:24;;;;;;;22.50;7.93;;;11.80;99.90;;;;;;5078100;28;20471;-82
2021/10/12 08:05:51;;;;;;;25.23;11.00;;;11.90;99.90;;;;;;5080104;28;20941;-82
2021/10/12 08:08:18;;;;;;;24.20;10.17;;;11.90;99.90;;;;;;5071121;28;20497;-82
2021/10/12 08:10:45;;;;;;;20.83;10.00;;;11.90;99.90;;;;;;5072507;28;20458;-82
2021/10/12 08:13:16;;;;;;;25.13;10.90;;;11.90;99.90;;;;;;5078131;28;20926;-81
2021/10/12 08:15:47;;;;;;;30.23;12.20;;;11.90;99.90;;;;;;5077498;28;20519;-82
2021/10/12 08:18:14;;;;;;;28.33;12.87;;;11.90;99.90;;;;;;5079334;28;20929;-81
2021/10/12 08:20:41;;;;;;;29.60;13.23;;;11.90;99.90;;;;;;5078209;28;20466;-82
2021/10/12 08:23:08;;;;;;;27.80;14.27;;;11.90;99.90;;;;;;5078984;28;20495;-83
2021/10/12 08:25:34;;;;;;;32.23;15.07;;;11.90;99.90;;;;;;5078380;28;20531;-82
2021/10/12 08:28:01;;;;;;;29.07;14.50;;;11.80;99.90;;;;;;5078829;28;20482;-83
2021/10/12 08:30:29;;;;;;;34.10;17.73;;;11.90;99.90;;;;;;5072075;28;20447;-82
2021/10/12 08:32:56;;;;;;;52.63;29.90;;;11.70;99.90;;;;;;5076649;28;20473;-82
2021/10/12 08:35:23;;;;;;;35.87;20.30;;;11.80;99.90;;;;;;5078918;28;20458;-82
2021/10/12 08:37:50;;;;;;;33.87;17.03;;;11.80;99.90;;;;;;5078134;28;20460;-80
2021/10/12 08:40:18;;;;;;;34.93;18.67;;;11.90;99.90;;;;;;5075868;28;20537;-81
2021/10/12 08:42:47;;;;;;;38.60;18.40;;;11.90;99.90;;;;;;5073831;28;20474;-81
2021/10/12 08:45:15;;;;;;;38.20;17.57;;;11.90;99.90;;;;;;5075022;28;20450;-81
2021/10/12 08:47:44;;;;;;;30.77;17.37;;;11.90;99.90;;;;;;5075834;28;20484;-81
2021/10/12 08:50:13;;;;;;;32.47;17.53;;;11.90;99.90;;;;;;5074859;28;20454;-81
2021/10/12 08:52:40;;;;;;;35.73;19.40;;;11.90;99.90;;;;;;5074644;28;20485;-81
2021/10/12 08:55:08;;;;;;;33.23;19.40;;;11.80;99.90;;;;;;5075574;28;20529;-81
2021/10/12 08:57:36;;;;;;;33.60;18.77;;;11.90;99.90;;;;;;5073797;28;20454;-82
2021/10/12 09:00:06;;;;;;;37.37;21.10;;;11.90;99.90;;;;;;5074926;28;20446;-81
2021/10/12 09:02:33;;;;;;;37.57;21.40;;;11.90;99.90;;;;;;5075443;28;20471;-82
2021/10/12 09:05:01;;;;;;;40.07;22.77;;;11.90;99.90;;;;;;5075045;28;20965;-82
2021/10/12 09:07:30;;;;;;;35.47;19.50;;;11.90;99.90;;;;;;5075259;28;20460;-81
2021/10/12 09:09:59;;;;;;;36.63;20.37;;;12.00;99.90;;;;;;5074597;28;20542;-81
2021/10/12 09:12:43;;;;;;;40.40;22.17;;;12.00;99.90;;;;;;5075667;28;21283;-81
2021/10/12 09:15:11;;;;;;;38.20;19.97;;;12.00;99.90;;;;;;5076100;28;20834;-82
2021/10/12 09:17:41;;;;;;;36.53;20.60;;;12.00;99.90;;;;;;5075699;28;20823;-82
2021/10/12 09:20:32;;;;;;;40.50;22.20;;;12.00;99.90;;;;;;5077376;28;20512;-82
2021/10/12 09:23:13;;;;;;;38.63;21.57;;;12.00;99.90;;;;;;5080279;28;20496;-82
2021/10/12 09:25:42;;;;;;;34.33;20.17;;;12.00;99.90;;;;;;5078104;28;20451;-82
2021/10/12 09:28:23;;;;;;;42.13;21.90;;;12.00;99.90;;;;;;5078419;28;20950;-82
2021/10/12 09:30:53;;;;;;;39.63;20.57;;;12.10;99.90;;;;;;5078837;28;20482;-82
2021/10/12 09:33:20;;;;;;;45.03;23.20;;;12.20;99.90;;;;;;5073459;28;20483;-82
2021/10/12 09:35:48;;;;;;;35.90;20.77;;;12.30;99.90;;;;;;5075173;28;21179;-82
2021/10/12 09:38:16;;;;;;;41.87;23.90;;;12.40;99.90;;;;;;5068480;28;20447;-82
2021/10/12 09:40:45;;;;;;;48.47;25.50;;;12.40;99.90;;;;;;5070331;28;20502;-82
2021/10/12 09:43:16;;;;;;;37.63;22.70;;;12.30;99.90;;;;;;5069120;28;20546;-83
2021/10/12 09:45:45;;;;;;;39.10;21.87;;;12.30;99.90;;;;;;5067254;28;20528;-82
2021/10/12 09:48:29;;;;;;;40.10;23.87;;;12.30;99.90;;;;;;5068110;28;20833;-82
2021/10/12 09:51:12;;;;;;;41.07;23.37;;;12.30;99.90;;;;;;5069576;28;20456;-83
2021/10/12 09:53:39;;;;;;;40.33;20.27;;;12.40;99.90;;;;;;5075006;28;20853;-81
2021/10/12 09:56:07;;;;;;;35.97;21.07;;;12.50;99.90;;;;;;5067404;28;20448;-82
2021/10/12 09:58:34;;;;;;;36.43;22.87;;;12.50;99.90;;;;;;5077824;28;20439;-82
2021/10/12 10:01:03;;;;;;;38.50;23.40;;;12.60;99.90;;;;;;5068277;28;20455;-82
2021/10/12 10:03:31;;;;;;;36.23;22.53;;;12.60;99.90;;;;;;5071426;28;20478;-82
2021/10/12 10:06:03;;;;;;;36.87;22.07;;;12.70;99.90;;;;;;5069573;28;20455;-82
2021/10/12 10:08:37;;;;;;;35.90;20.53;;;12.80;99.90;;;;;;5069807;28;20595;-82
2021/10/12 10:11:04;;;;;;;41.30;23.90;;;12.90;99.90;;;;;;5075454;28;20518;-81
2021/10/12 10:13:33;;;;;;;35.70;23.10;;;12.90;99.90;;;;;;5070202;28;20864;-81
2021/10/12 10:16:01;;;;;;;37.50;21.03;;;13.00;99.90;;;;;;5062829;28;20822;-82
2021/10/12 10:18:28;;;;;;;35.90;21.73;;;13.00;99.90;;;;;;5063118;28;20451;-80
2021/10/12 10:20:55;;;;;;;35.57;21.30;;;13.00;99.90;;;;;;5064794;28;20454;-81
2021/10/12 10:23:56;;;;;;;36.70;23.17;;;13.00;99.90;;;;;;5069609;28;20462;-81
2021/10/12 10:26:24;;;;;;;39.23;22.83;;;13.10;99.90;;;;;;5058782;28;20477;-80
2021/10/12 10:28:53;;;;;;;35.90;19.47;;;13.20;99.90;;;;;;5063060;28;20486;-82
2021/10/12 10:31:38;;;;;;;32.60;19.30;;;13.20;99.90;;;;;;5061427;28;20515;-82
2021/10/12 10:34:29;;;;;;;35.00;18.80;;;13.30;99.90;;;;;;5065941;28;20487;-82
2021/10/12 10:37:28;;;;;;;34.20;19.80;;;13.20;99.90;;;;;;5064046;28;20458;-82
2021/10/12 10:39:58;;;;;;;33.23;19.57;;;13.30;99.90;;;;;;5065581;28;20463;-82
2021/10/12 10:42:58;;;;;;;28.27;16.40;;;13.40;99.90;;;;;;5068126;28;20552;-82
2021/10/12 10:45:50;;;;;;;33.40;19.80;;;13.40;99.90;;;;;;5056679;28;20495;-81
2021/10/12 10:48:19;;;;;;;31.43;17.07;;;13.40;99.90;;;;;;5072876;28;20448;-81
2021/10/12 10:50:47;;;;;;;31.37;16.50;;;13.40;99.90;;;;;;5062963;28;20520;-81
2021/10/12 10:53:14;;;;;;;27.40;14.20;;;13.40;99.90;;;;;;5064102;28;20481;-81
2021/10/12 10:55:44;;;;;;;27.83;15.20;;;13.50;99.90;;;;;;5064116;28;20459;-80
2021/10/12 10:58:16;;;;;;;27.70;15.00;;;13.60;99.90;;;;;;5071895;28;20448;-81
2021/10/12 11:00:45;;;;;;;26.17;14.23;;;13.70;99.90;;;;;;5072102;28;21054;-80
2021/10/12 11:03:40;;;;;;;27.87;14.50;;;13.90;99.90;;;;;;5071946;28;20478;-81
2021/10/12 11:06:22;;;;;;;24.43;12.07;;;13.90;99.90;;;;;;5062450;28;20463;-80
2021/10/12 11:09:00;;;;;;;25.40;13.10;;;13.90;99.90;;;;;;5066204;28;20495;-80
2021/10/12 11:11:33;;;;;;;25.53;13.40;;;13.80;99.90;;;;;;5069102;28;20450;-80
2021/10/12 11:14:00;;;;;;;26.20;12.53;;;13.80;99.90;;;;;;5059716;28;20477;-80
2021/10/12 11:16:37;;;;;;;25.57;12.00;;;13.70;99.90;;;;;;5065900;28;20469;-81
2021/10/12 11:19:05;;;;;;;26.50;12.33;;;13.70;99.90;;;;;;5069130;28;20468;-80
2021/10/12 11:21:33;;;;;;;27.43;14.00;;;13.60;99.90;;;;;;5069724;28;20460;-80
2021/10/12 11:24:02;;;;;;;23.87;12.57;;;13.60;99.90;;;;;;5079329;28;20473;-82
2021/10/12 11:26:31;;;;;;;24.87;12.93;;;13.60;99.90;;;;;;5076375;28;20548;-82
2021/10/12 11:29:02;;;;;;;23.37;11.37;;;13.60;99.90;;;;;;5074559;28;20539;-82
2021/10/12 11:31:31;;;;;;;27.20;14.40;;;13.50;99.90;;;;;;5076047;28;20504;-82
2021/10/12 11:33:59;;;;;;;26.00;13.60;;;13.50;99.90;;;;;;5061413;28;20542;-81
2021/10/12 11:36:29;;;;;;;26.40;12.43;;;13.60;99.90;;;;;;5076706;28;21079;-81
2021/10/12 11:38:58;;;;;;;22.80;12.57;;;13.60;99.90;;;;;;5076618;28;20956;-82
2021/10/12 11:41:27;;;;;;;23.80;12.67;;;13.60;99.90;;;;;;5083904;28;21041;-83
2021/10/12 11:43:56;;;;;;;23.90;12.60;;;13.50;99.90;;;;;;5080084;28;20851;-82
2021/10/12 11:46:30;;;;;;;24.40;12.43;;;13.40;99.90;;;;;;5074126;28;20445;-82
2021/10/12 11:48:57;;;;;;;26.30;13.43;;;13.40;99.90;;;;;;5062630;28;20459;-79
2021/10/12 11:51:29;;;;;;;26.63;15.03;;;13.40;99.90;;;;;;5073166;28;20458;-83
2021/10/12 11:53:56;;;;;;;26.57;14.10;;;13.50;99.90;;;;;;5071594;28;20469;-83
2021/10/12 11:56:24;;;;;;;34.93;19.87;;;13.60;99.90;;;;;;5083119;28;20524;-83
2021/10/12 11:58:57;;;;;;;28.53;15.23;;;13.80;99.90;;;;;;5076287;28;20829;-83
2021/10/12 12:01:30;;;;;;;24.60;14.20;;;13.70;99.90;;;;;;5080954;28;20529;-82
2021/10/12 12:03:59;;;;;;;28.60;17.17;;;13.80;99.90;;;;;;5066822;28;20465;-83
2021/10/12 12:06:28;;;;;;;25.40;13.50;;;14.10;99.90;;;;;;5073873;28;20459;-83
2021/10/12 12:08:58;;;;;;;30.03;15.23;;;14.40;99.90;;;;;;5075601;28;20438;-81
2021/10/12 12:11:26;;;;;;;24.63;13.23;;;14.50;99.90;;;;;;5086089;28;20482;-81
2021/10/12 12:13:55;;;;;;;27.30;14.03;;;14.60;99.90;;;;;;5075240;28;21006;-82
2021/10/12 12:16:23;;;;;;;23.70;12.13;;;14.60;99.90;;;;;;5073914;28;20526;-82
2021/10/12 12:18:52;;;;;;;25.87;12.00;;;14.60;99.90;;;;;;5066075;28;20458;-81
2021/10/12 12:21:33;;;;;;;23.10;12.43;;;14.70;99.90;;;;;;5073680;28;20524;-81
2021/10/12 12:24:01;;;;;;;23.03;10.90;;;14.50;99.90;;;;;;5062625;28;20473;-81
2021/10/12 12:26:30;;;;;;;22.97;10.77;;;14.30;99.90;;;;;;5060769;28;20456;-81
2021/10/12 12:29:15;;;;;;;21.70;6.87;;;14.10;99.90;;;;;;5070119;28;20847;-82
2021/10/12 12:31:47;;;;;;;18.27;3.87;;;13.80;99.90;;;;;;5063478;28;20459;-81
2021/10/12 12:34:26;;;;;;;14.07;3.17;;;13.60;99.90;;;;;;5062972;28;20818;-81
2021/10/12 12:36:53;;;;;;;16.10;2.20;;;13.40;99.90;;;;;;5060210;28;20467;-81
2021/10/12 12:39:33;;;;;;;16.20;1.80;;;13.20;99.90;;;;;;5073101;28;20817;-82